Report METAR

 

LELL - Sabadell, Spain
Distance from station: E 18km
Dati ricevuti: 25/05/2018 04:30
Sereno
Sereno
 Vento da ONO
Vento: ONO 9 km/h
Temperatura: 13°C
P.to Rugiada: 11°C
Umidità: 88%
Barometro: 1015 hPa
Summary: Sereno
Visibility: superiore a 10 km
2018/05/25 02:30 LELL 250230Z AUTO 29005KT CAVOK 13/11 Q1015
LEBL - Barcelona Airpor, Spain
Distance from station: SSE 33km
Dati ricevuti: 25/05/2018 04:30
Few Clouds
Few Clouds
 Vento da NNE
Vento: NNE 17 km/h
Temperatura: 18°C
P.to Rugiada: 13°C
Umidità: 73%
Barometro: 1014 hPa
Nuvole: Few Clouds
Visibility: 10 km
Cloud details: Few Clouds 1219 m
2018/05/25 02:30 LEBL 250230Z 03009KT 9999 FEW040 18/13 Q1014 NOSIG
LERS - Reus (civ/Mil), Spain
Distance from station: SO 75km
Dati ricevuti: 25/05/2018 04:30
Nearby thunderstorm, Temporale
Nearby thunderstorm, Temporale
 Vento da N
Vento: N 15 km/h
Temperatura: 20°C
P.to Rugiada: 10°C
Umidità: 53%
Barometro: 1014 hPa
Summary: Nearby Thunderstorm
Nuvole: Temporale
Visibility: 10 km
2018/05/25 02:30 LERS 250230Z AUTO 36008KT 9999 VCTS ///CB 20/10 Q1014
 
LEGE - Gerona/Costa Bra, Spain
Distance from station: ENE 83km
Dati ricevuti: 25/05/2018 04:30
Parz. nuvoloso
Parz. nuvoloso
 Vento da calmo
Vento: Calma
Temperatura: 12°C
P.to Rugiada: 12°C
Umidità: 100%
Barometro: 1016 hPa
Nuvole: Parz. nuvoloso
Visibility: 9 km
2018/05/25 02:30 LEGE 250230Z 00000KT 9000 NSC 12/12 Q1016
LFMP - Perpignan/Rivesa, France
Distance from station: NNE 155km
Dati ricevuti: 25/05/2018 04:30
Molto nuvoloso
Molto nuvoloso
 Vento da NE
Vento: NE 4 km/h
Temperatura: 17°C
P.to Rugiada: 15°C
Umidità: 88%
Barometro: 1016 hPa
Nuvole: Molto nuvoloso
Visibility: 8 km
Cloud details: Molto nuvoloso 610 m
2018/05/25 02:30 LFMP 250230Z AUTO 05002KT 8000 BKN020 17/15 Q1016 TEMPO BKN008
LFMK - Carcassonne/Salv, France
Distance from station: N 191km
Dati ricevuti: 25/05/2018 04:30
Molto nuvoloso
Molto nuvoloso
 Vento da ESE
Vento: ESE 11 km/h
Temperatura: 16°C
P.to Rugiada: 15°C
Umidità: 94%
Barometro: 1015 hPa
Nuvole: Molto nuvoloso
Visibility: 9 km
Cloud details: Molto nuvoloso 244 m
Molto nuvoloso 427 m
2018/05/25 02:30 LFMK 250230Z AUTO 11006KT 080V160 9000 BKN008 BKN014 16/15 Q1015 NOSIG
 
LEHC - Huesca-Pirineos, Spain
Distance from station: ONO 193km
Dati ricevuti: 25/05/2018 04:30
Sereno
Sereno
 Vento da ESE
Vento: ESE 7 km/h
Temperatura: 15°C
P.to Rugiada: 9°C
Umidità: 68%
Barometro: 1016 hPa
Summary: Sereno
Visibility: superiore a 10 km
2018/05/25 02:30 LEHC 250230Z AUTO 11004KT 080V150 CAVOK 15/09 Q1016
LFMU - Beziers/Vias, France
Distance from station: NNE 232km
Dati ricevuti: 25/05/2018 04:30
Mist, Nuvoloso
Mist, Nuvoloso
 Vento da NNE
Vento: NNE 9 km/h
Temperatura: 15°C
P.to Rugiada: 14°C
Umidità: 94%
Barometro: 1016 hPa
Summary: Mist
Nuvole: Molto nuvoloso
Visibility: 5 km
Cloud details: Molto nuvoloso 244 m
2018/05/25 02:30 LFMU 250230Z AUTO 03005KT 4800 BR BKN008 15/14 Q1016 TEMPO 2000 BR
LEPA - Palma De Mallorc, Spain
Distance from station: SSE 233km
Dati ricevuti: 25/05/2018 04:30
Few Clouds
Few Clouds
 Vento da ENE
Vento: ENE 19 km/h
Temperatura: 20°C
P.to Rugiada: 11°C
Umidità: 56%
Barometro: 1013 hPa
Nuvole: Few Clouds
Visibility: 10 km
Cloud details: Few Clouds 762 m
2018/05/25 02:30 LEPA 250230Z 06010KT 9999 FEW025 20/11 Q1013 NOSIG
 
LFBO - Toulouse/Blagnac, France
Distance from station: N 236km
Dati ricevuti: 25/05/2018 04:30
Molto nuvoloso
Molto nuvoloso
 Vento da SE
Vento: SE 13 km/h
Temperatura: 17°C
P.to Rugiada: 15°C
Umidità: 88%
Barometro: 1015 hPa
Nuvole: Molto nuvoloso
Visibility: 7 km
Cloud details: Molto nuvoloso 244 m
2018/05/25 02:30 LFBO 250230Z AUTO 13007KT 7000 BKN008 17/15 Q1015 NOSIG
LFBT - Tarbes/Ossun, France
Distance from station: NO 239km
Dati ricevuti: 25/05/2018 04:30
Sereno
Sereno
 Vento da Variabile
Vento: Variabile 4 km/h
Temperatura: 14°C
P.to Rugiada: 13°C
Umidità: 94%
Barometro: 1015 hPa
Summary: Sereno
Visibility: superiore a 10 km
2018/05/25 02:30 LFBT 250230Z AUTO VRB02KT CAVOK 14/13 Q1015 TEMPO BKN012
LEZG - Zaragoza (mil/Ci, Spain
Distance from station: O 242km
Dati ricevuti: 25/05/2018 04:30
Few Clouds
Few Clouds
 Vento da ESE
Vento: ESE 6 km/h
Temperatura: 19°C
P.to Rugiada: 9°C
Umidità: 52%
Barometro: 1014 hPa
Nuvole: Few Clouds
Visibility: 10 km
Cloud details: Few Clouds 1524 m
2018/05/25 02:30 LEZG 250230Z 12003KT 080V180 9999 FEW050 19/09 Q1014